createdAt,value
2019-06-07T00:01:19.431Z,12.3
2019-06-07T00:03:27.319Z,12.3
2019-06-07T00:05:19.609Z,12.1
2019-06-07T00:07:21.399Z,12
2019-06-07T00:09:18.424Z,12.1
2019-06-07T00:11:19.934Z,12.1
2019-06-07T00:13:19.907Z,12.1
2019-06-07T00:14:34.453Z,12.1
2019-06-07T00:15:24.931Z,12.1
2019-06-07T00:17:19.624Z,12.1
2019-06-07T00:19:18.862Z,12.1
2019-06-07T00:21:20.109Z,12.1
2019-06-07T00:23:20.071Z,12.1
2019-06-07T00:25:21.279Z,12.1
2019-06-07T00:27:20.222Z,11.9
2019-06-07T00:29:18.980Z,11.9
2019-06-07T00:29:34.330Z,11.9
2019-06-07T00:31:22.345Z,11.8
2019-06-07T00:33:21.562Z,11.8
2019-06-07T00:35:20.562Z,11.8
2019-06-07T00:37:20.517Z,11.7
2019-06-07T00:39:20.189Z,11.7
2019-06-07T00:41:19.252Z,11.6
2019-06-07T00:43:20.235Z,11.6
2019-06-07T00:44:34.372Z,11.6
2019-06-07T00:45:18.886Z,11.5
2019-06-07T00:47:19.701Z,11.6
2019-06-07T00:49:31.975Z,11.5
2019-06-07T00:51:18.722Z,11.6
2019-06-07T00:53:21.451Z,11.6
2019-06-07T00:55:19.543Z,11.7
2019-06-07T00:57:19.347Z,11.6
2019-06-07T00:59:20.633Z,11.6
2019-06-07T00:59:34.401Z,11.6
2019-06-07T01:01:20.142Z,11.6
2019-06-07T01:03:19.935Z,11.6
2019-06-07T01:05:19.366Z,11.5
2019-06-07T01:07:18.801Z,11.5
2019-06-07T01:09:17.735Z,11.5
2019-06-07T01:11:22.050Z,11.5
2019-06-07T01:13:19.367Z,11.5
2019-06-07T01:14:34.376Z,11.5
2019-06-07T01:15:19.534Z,11.5
2019-06-07T01:17:27.419Z,11.4
2019-06-07T01:19:18.872Z,11.5
2019-06-07T01:21:20.522Z,11.4
2019-06-07T01:23:54.161Z,11.4
2019-06-07T01:25:18.230Z,11.4
2019-06-07T01:27:18.876Z,11.4
2019-06-07T01:29:18.250Z,11.4
2019-06-07T01:29:34.287Z,11.4
2019-06-07T01:31:20.549Z,11.4
2019-06-07T01:33:18.299Z,11.4
2019-06-07T01:35:20.187Z,11.4
2019-06-07T01:37:19.319Z,11.4
2019-06-07T01:39:18.791Z,11.4
2019-06-07T01:41:21.532Z,11.4
2019-06-07T01:43:19.369Z,11.4
2019-06-07T01:44:34.365Z,11.4
2019-06-07T01:45:18.306Z,11.4
2019-06-07T01:47:17.869Z,11.4
2019-06-07T01:49:17.373Z,11.4
2019-06-07T01:51:18.864Z,11.3
2019-06-07T01:53:19.374Z,11.3
2019-06-07T01:55:18.797Z,11.3
2019-06-07T01:57:33.937Z,11.1
2019-06-07T01:59:17.763Z,11.2
2019-06-07T01:59:34.398Z,11.2
2019-06-07T02:01:19.135Z,11.1
2019-06-07T02:03:18.515Z,11.1
2019-06-07T02:05:19.109Z,11.1
2019-06-07T02:07:20.258Z,11.1
2019-06-07T02:09:18.451Z,11.1
2019-06-07T02:11:17.989Z,11.1
2019-06-07T02:13:17.364Z,11
2019-06-07T02:14:35.372Z,11.1
2019-06-07T02:15:17.415Z,11.1
2019-06-07T02:17:17.382Z,11.1
2019-06-07T02:19:17.350Z,11.1
2019-06-07T02:21:17.300Z,11.1
2019-06-07T02:23:17.410Z,11.1
2019-06-07T02:25:35.592Z,11.1
2019-06-07T02:27:17.476Z,11.1
2019-06-07T02:29:18.828Z,11.1
2019-06-07T02:29:35.338Z,11.1
2019-06-07T02:31:17.411Z,11.2
2019-06-07T02:33:17.392Z,11.2
2019-06-07T02:35:17.393Z,11.1
2019-06-07T02:37:17.359Z,11.2
2019-06-07T02:39:17.352Z,11.1
2019-06-07T02:41:17.358Z,11
2019-06-07T02:43:17.485Z,10.9
2019-06-07T02:44:38.893Z,10.9
2019-06-07T02:45:17.359Z,10.9
2019-06-07T02:47:17.430Z,10.9
2019-06-07T02:49:17.355Z,10.9
2019-06-07T02:51:17.389Z,10.9
2019-06-07T02:53:17.361Z,10.9
2019-06-07T02:55:17.404Z,10.9
2019-06-07T02:57:17.401Z,10.9
2019-06-07T02:59:17.362Z,10.9
2019-06-07T03:00:02.785Z,10.9
2019-06-07T03:01:17.355Z,10.9
2019-06-07T03:03:17.404Z,10.8
2019-06-07T03:05:17.351Z,10.8
2019-06-07T03:07:17.411Z,10.8
2019-06-07T03:09:17.361Z,10.8
2019-06-07T03:11:18.266Z,10.7
2019-06-07T03:13:17.402Z,10.6
2019-06-07T03:14:35.351Z,10.6
2019-06-07T03:15:32.538Z,10.6
2019-06-07T03:17:17.359Z,10.6
2019-06-07T03:19:17.352Z,10.6
2019-06-07T03:21:17.375Z,10.5
2019-06-07T03:23:17.369Z,10.4
2019-06-07T03:25:17.414Z,10.4
2019-06-07T03:27:35.789Z,10.4
2019-06-07T03:29:17.399Z,10.4
2019-06-07T03:29:36.482Z,10.4
2019-06-07T03:31:17.418Z,10.3
2019-06-07T03:33:17.364Z,10.3
2019-06-07T03:35:17.407Z,10.2
2019-06-07T03:37:17.353Z,10.3
2019-06-07T03:39:17.363Z,10.3
2019-06-07T03:41:17.445Z,10.3
2019-06-07T03:43:18.283Z,10.3
2019-06-07T03:44:35.751Z,10.3
2019-06-07T03:45:17.399Z,10.3
2019-06-07T03:47:17.411Z,10.3
2019-06-07T03:49:17.353Z,10.3
2019-06-07T03:51:24.953Z,10.4
2019-06-07T03:53:17.378Z,10.4
2019-06-07T03:55:17.428Z,10.4
2019-06-07T03:57:17.358Z,10.4
2019-06-07T03:59:17.362Z,10.6
2019-06-07T03:59:37.345Z,10.6
2019-06-07T04:01:17.379Z,10.6
2019-06-07T04:03:32.724Z,10.6
2019-06-07T04:05:17.353Z,10.6
2019-06-07T04:07:17.378Z,10.7
2019-06-07T04:09:17.374Z,10.8
2019-06-07T04:11:17.402Z,10.8
2019-06-07T04:13:17.354Z,10.8
2019-06-07T04:14:35.137Z,10.8
2019-06-07T04:15:17.408Z,10.9
2019-06-07T04:17:17.363Z,10.9
2019-06-07T04:19:17.387Z,11
2019-06-07T04:21:17.510Z,11
2019-06-07T04:23:27.541Z,11.1
2019-06-07T04:25:17.382Z,11.1
2019-06-07T04:27:17.400Z,11.1
2019-06-07T04:29:36.839Z,11.1
2019-06-07T04:29:55.308Z,11.1
2019-06-07T04:31:17.385Z,11.1
2019-06-07T04:33:17.305Z,11.2
2019-06-07T04:35:18.485Z,11.2
2019-06-07T04:37:17.406Z,11.2
2019-06-07T04:39:17.436Z,11.2
2019-06-07T04:41:17.385Z,11.3
2019-06-07T04:43:17.424Z,11.3
2019-06-07T04:44:36.682Z,11.3
2019-06-07T04:45:33.414Z,11.3
2019-06-07T04:47:17.447Z,11.3
2019-06-07T04:49:18.288Z,11.4
2019-06-07T04:51:17.388Z,11.4
2019-06-07T04:53:17.321Z,11.4
2019-06-07T04:55:17.410Z,11.4
2019-06-07T04:57:17.357Z,11.5
2019-06-07T04:59:53.730Z,11.5
2019-06-07T05:00:10.409Z,11.5
2019-06-07T05:01:27.096Z,11.6
2019-06-07T05:03:17.492Z,11.6
2019-06-07T05:05:27.348Z,11.8
2019-06-07T05:07:17.352Z,11.8
2019-06-07T05:09:17.439Z,11.8
2019-06-07T05:11:17.365Z,11.9
2019-06-07T05:13:17.394Z,11.9
2019-06-07T05:14:34.984Z,11.9
2019-06-07T05:15:17.407Z,11.9
2019-06-07T05:17:17.429Z,12
2019-06-07T05:19:17.297Z,12.1
2019-06-07T05:21:17.358Z,12.1
2019-06-07T05:23:59.796Z,12.1
2019-06-07T05:25:17.365Z,12.2
2019-06-07T05:27:17.429Z,12.3
2019-06-07T05:29:17.369Z,12.3
2019-06-07T05:29:36.753Z,12.3
2019-06-07T05:31:17.360Z,12.4
2019-06-07T05:33:17.427Z,12.6
2019-06-07T05:35:17.393Z,12.7
2019-06-07T05:37:17.471Z,12.8
2019-06-07T05:39:17.274Z,12.8
2019-06-07T05:41:17.403Z,13
2019-06-07T05:43:17.366Z,13
2019-06-07T05:44:36.329Z,13
2019-06-07T05:45:17.355Z,13
2019-06-07T05:47:17.459Z,13.1
2019-06-07T05:49:17.383Z,13.1
2019-06-07T05:51:17.343Z,13.2
2019-06-07T05:53:18.297Z,13.2
2019-06-07T05:55:17.362Z,13.1
2019-06-07T05:57:17.401Z,13.1
2019-06-07T05:59:17.410Z,13.2
2019-06-07T05:59:38.203Z,13.2
2019-06-07T06:01:42.619Z,13.3
2019-06-07T06:03:17.358Z,13.2
2019-06-07T06:05:32.306Z,13.2
2019-06-07T06:07:17.352Z,13.2
2019-06-07T06:09:17.362Z,13.3
2019-06-07T06:11:17.350Z,13.4
2019-06-07T06:13:17.394Z,13.4
2019-06-07T06:14:39.255Z,13.4
2019-06-07T06:15:17.369Z,13.5
2019-06-07T06:17:17.383Z,13.7
2019-06-07T06:19:17.445Z,13.8
2019-06-07T06:21:20.101Z,13.9
2019-06-07T06:23:17.399Z,13.9
2019-06-07T06:25:31.350Z,14
2019-06-07T06:27:55.524Z,14.1
2019-06-07T06:29:17.427Z,14.1
2019-06-07T06:29:35.681Z,14.1
2019-06-07T06:31:17.365Z,14
2019-06-07T06:33:31.101Z,14.1
2019-06-07T06:35:17.497Z,14.1
2019-06-07T06:37:17.693Z,14.1
2019-06-07T06:39:17.470Z,14.2
2019-06-07T06:41:17.355Z,14.3
2019-06-07T06:43:17.372Z,14.2
2019-06-07T06:44:34.323Z,14.3
2019-06-07T06:45:17.427Z,14.2
2019-06-07T06:47:17.429Z,14.3
2019-06-07T06:49:17.371Z,14.4
2019-06-07T06:51:17.472Z,14.5
2019-06-07T06:53:17.399Z,14.4
2019-06-07T06:55:17.399Z,14.5
2019-06-07T06:57:19.374Z,14.4
2019-06-07T06:59:38.481Z,14.5
2019-06-07T06:59:38.993Z,14.6
2019-06-07T07:01:17.417Z,14.6
2019-06-07T07:03:48.076Z,14.6
2019-06-07T07:05:17.405Z,14.7
2019-06-07T07:07:18.277Z,14.8
2019-06-07T07:09:17.397Z,14.9
2019-06-07T07:11:17.410Z,15
2019-06-07T07:13:17.413Z,15.2
2019-06-07T07:14:34.353Z,15.2
2019-06-07T07:15:17.422Z,15.3
2019-06-07T07:17:17.398Z,15.1
2019-06-07T07:19:17.420Z,15.2
2019-06-07T07:21:17.439Z,15.3
2019-06-07T07:23:17.518Z,15.3
2019-06-07T07:25:17.389Z,15.3
2019-06-07T07:27:17.329Z,15.4
2019-06-07T07:29:17.419Z,15.4
2019-06-07T07:29:34.413Z,15.4
2019-06-07T07:31:17.409Z,15.4
2019-06-07T07:33:17.419Z,15.4
2019-06-07T07:35:17.375Z,15.4
2019-06-07T07:37:17.434Z,15.5
2019-06-07T07:39:17.416Z,15.6
2019-06-07T07:41:17.405Z,15.6
2019-06-07T07:43:17.419Z,15.6
2019-06-07T07:44:34.476Z,15.6
2019-06-07T07:45:17.428Z,15.6
2019-06-07T07:47:17.385Z,15.6
2019-06-07T07:49:17.356Z,15.7
2019-06-07T07:51:17.439Z,15.6
2019-06-07T07:53:17.438Z,15.6
2019-06-07T07:55:17.441Z,15.6
2019-06-07T07:57:17.434Z,15.6
2019-06-07T07:59:17.362Z,15.6
2019-06-07T07:59:42.073Z,15.6
2019-06-07T08:01:17.444Z,15.6
2019-06-07T08:03:17.473Z,15.6
2019-06-07T08:05:23.154Z,15.7
2019-06-07T08:07:17.408Z,15.8
2019-06-07T08:09:17.371Z,15.9
2019-06-07T08:11:17.358Z,15.9
2019-06-07T08:13:25.326Z,15.9
2019-06-07T08:14:34.364Z,15.9
2019-06-07T08:15:17.394Z,15.9
2019-06-07T08:17:17.397Z,16
2019-06-07T08:19:17.372Z,16.1
2019-06-07T08:21:25.180Z,16.1
2019-06-07T08:23:17.415Z,16.3
2019-06-07T08:25:17.357Z,16.5
2019-06-07T08:27:26.208Z,16.7
2019-06-07T08:29:17.290Z,16.8
2019-06-07T08:29:44.684Z,16.8
2019-06-07T08:31:17.399Z,16.8
2019-06-07T08:33:25.765Z,16.6
2019-06-07T08:35:57.188Z,16.7
2019-06-07T08:37:17.417Z,16.6
2019-06-07T08:39:17.451Z,16.6
2019-06-07T08:41:17.416Z,16.7
2019-06-07T08:43:20.509Z,16.7
2019-06-07T08:44:34.447Z,16.7
2019-06-07T08:45:17.395Z,16.6
2019-06-07T08:47:20.824Z,16.7
2019-06-07T08:49:17.363Z,16.6
2019-06-07T08:51:17.392Z,16.4
2019-06-07T08:53:17.396Z,16.4
2019-06-07T08:55:17.410Z,16.6
2019-06-07T08:57:21.527Z,16.6
2019-06-07T08:59:17.456Z,16.6
2019-06-07T08:59:34.418Z,16.7
2019-06-07T09:01:17.375Z,16.8
2019-06-07T09:03:18.240Z,17
2019-06-07T09:05:17.411Z,17.1
2019-06-07T09:07:19.721Z,17.1
2019-06-07T09:09:18.285Z,17.3
2019-06-07T09:11:17.409Z,17.4
2019-06-07T09:13:17.312Z,17.4
2019-06-07T09:14:35.292Z,17.5
2019-06-07T09:15:22.619Z,17.5
2019-06-07T09:17:17.325Z,17.6
2019-06-07T09:19:17.380Z,17.6
2019-06-07T09:21:19.647Z,17.6
2019-06-07T09:23:17.874Z,17.7
2019-06-07T09:25:20.500Z,17.6
2019-06-07T09:27:17.355Z,17.6
2019-06-07T09:29:17.364Z,17.7
2019-06-07T09:29:34.410Z,17.7
2019-06-07T09:31:17.362Z,17.7
2019-06-07T09:33:18.298Z,17.8
2019-06-07T09:35:17.863Z,17.8
2019-06-07T09:38:03.440Z,18
2019-06-07T09:39:19.163Z,18
2019-06-07T09:41:17.409Z,18.2
2019-06-07T09:44:35.189Z,18.4
2019-06-07T09:45:17.390Z,18.4
2019-06-07T09:47:30.870Z,18.6
2019-06-07T09:49:30.437Z,18.6
2019-06-07T09:51:19.576Z,18.8
2019-06-07T09:53:22.197Z,19
2019-06-07T09:55:24.140Z,19.3
2019-06-07T09:57:17.967Z,19.4
2019-06-07T09:59:18.271Z,19.3
2019-06-07T09:59:34.414Z,19.3
2019-06-07T10:01:17.476Z,19.4
2019-06-07T10:03:21.712Z,19.5
2019-06-07T10:05:17.320Z,19.5
2019-06-07T10:11:17.465Z,19.6
2019-06-07T10:13:17.525Z,19.6
2019-06-07T10:14:34.436Z,19.7
2019-06-07T10:15:17.430Z,19.8
2019-06-07T10:17:17.438Z,19.9
2019-06-07T10:19:17.380Z,19.9
2019-06-07T10:21:18.302Z,20
2019-06-07T10:23:17.418Z,20.1
2019-06-07T10:25:17.408Z,20.1
2019-06-07T10:27:17.428Z,20.2
2019-06-07T10:29:17.358Z,20.3
2019-06-07T10:29:34.416Z,20.3
2019-06-07T10:31:17.319Z,20.3
2019-06-07T10:33:17.341Z,20.4
2019-06-07T10:35:17.399Z,20.4
2019-06-07T10:37:17.419Z,20.5
2019-06-07T10:39:19.179Z,20.3
2019-06-07T10:41:17.354Z,20.4
2019-06-07T10:43:17.395Z,20.6
2019-06-07T10:44:34.448Z,20.6
2019-06-07T10:45:17.403Z,20.6
2019-06-07T10:47:17.403Z,20.8
2019-06-07T10:49:17.397Z,20.9
2019-06-07T10:51:17.405Z,20.8
2019-06-07T10:53:17.441Z,21
2019-06-07T10:55:17.358Z,21
2019-06-07T10:57:17.385Z,20.9
2019-06-07T10:59:17.367Z,20.9
2019-06-07T10:59:34.338Z,20.9
2019-06-07T11:01:17.447Z,21
2019-06-07T11:03:17.408Z,21.2
2019-06-07T11:05:17.381Z,21.1
2019-06-07T11:07:17.405Z,21.2
2019-06-07T11:09:17.374Z,21.1
2019-06-07T11:11:17.402Z,21.1
2019-06-07T11:13:17.471Z,21.1
2019-06-07T11:14:34.432Z,21
2019-06-07T11:15:17.338Z,21.1
2019-06-07T11:17:17.846Z,21.1
2019-06-07T11:19:18.366Z,21.1
2019-06-07T11:21:18.609Z,21.2
2019-06-07T11:23:18.538Z,21.2
2019-06-07T11:25:18.548Z,21.1
2019-06-07T11:27:18.963Z,21.1
2019-06-07T11:29:19.141Z,21.2
2019-06-07T11:29:34.366Z,21.3
2019-06-07T11:31:18.882Z,21.4
2019-06-07T11:33:18.589Z,21.5
2019-06-07T11:35:17.433Z,21.6
2019-06-07T11:37:17.374Z,21.8
2019-06-07T11:39:18.795Z,22
2019-06-07T11:41:17.833Z,21.9
2019-06-07T11:43:17.418Z,22.1
2019-06-07T11:44:34.441Z,22.3
2019-06-07T11:45:18.253Z,22.3
2019-06-07T11:47:18.419Z,22.4
2019-06-07T11:49:20.193Z,22.5
2019-06-07T11:51:18.819Z,22.9
2019-06-07T11:53:19.927Z,23.1
2019-06-07T11:55:17.405Z,23.3
2019-06-07T11:57:17.465Z,23.4
2019-06-07T11:59:18.272Z,23.4
2019-06-07T11:59:34.360Z,23.4
2019-06-07T12:01:18.601Z,23.3
2019-06-07T12:03:17.998Z,23.2
2019-06-07T12:05:19.845Z,23.1
2019-06-07T12:07:19.783Z,23.3
2019-06-07T12:09:18.745Z,23.3
2019-06-07T12:11:18.493Z,23.4
2019-06-07T12:13:18.677Z,23.3
2019-06-07T12:14:34.410Z,23.3
2019-06-07T12:15:17.518Z,23.3
2019-06-07T12:17:17.682Z,23.1
2019-06-07T12:19:17.703Z,23.3
2019-06-07T12:21:17.974Z,23.4
2019-06-07T12:23:18.074Z,23.3
2019-06-07T12:25:21.073Z,23.3
2019-06-07T12:27:27.427Z,23.3
2019-06-07T12:29:17.367Z,23.2
2019-06-07T12:29:34.356Z,23.2
2019-06-07T12:31:17.429Z,23.2
2019-06-07T12:33:17.750Z,23.1
2019-06-07T12:35:17.816Z,23
2019-06-07T12:37:19.239Z,23
2019-06-07T12:39:18.037Z,23.1
2019-06-07T12:41:18.217Z,23.1
2019-06-07T12:43:19.070Z,23.1
2019-06-07T12:44:34.445Z,23.1
2019-06-07T12:45:39.962Z,23.1
2019-06-07T12:47:18.690Z,23.2
2019-06-07T12:49:17.379Z,23.3
2019-06-07T12:51:17.475Z,23.3
2019-06-07T12:53:21.993Z,23.4
2019-06-07T12:55:18.126Z,23.5
2019-06-07T12:57:17.978Z,23.6
2019-06-07T12:59:17.922Z,23.9
2019-06-07T12:59:34.365Z,23.9
2019-06-07T13:01:18.200Z,24.2
2019-06-07T13:03:18.354Z,24.1
2019-06-07T13:05:17.925Z,24.1
2019-06-07T13:07:17.951Z,24.3
2019-06-07T13:09:28.069Z,24.4
2019-06-07T13:11:21.345Z,24.6
2019-06-07T13:13:18.158Z,24.4
2019-06-07T13:14:35.283Z,24.3
2019-06-07T13:15:19.696Z,24.4
2019-06-07T13:17:17.906Z,24.4
2019-06-07T13:19:18.025Z,24.3
2019-06-07T13:21:18.300Z,24.2
2019-06-07T13:23:19.074Z,24
2019-06-07T13:25:18.404Z,23.8
2019-06-07T13:27:18.391Z,23.6
2019-06-07T13:29:18.636Z,23.6
2019-06-07T13:29:34.390Z,23.6
2019-06-07T13:31:18.496Z,23.6
2019-06-07T13:33:18.597Z,23.7
2019-06-07T13:35:18.638Z,23.4
2019-06-07T13:37:17.421Z,23.4
2019-06-07T13:39:17.353Z,23.4
2019-06-07T13:41:29.859Z,23.4
2019-06-07T13:43:17.507Z,23.4
2019-06-07T13:44:34.395Z,23.5
2019-06-07T13:45:17.985Z,23.6
2019-06-07T13:47:18.912Z,23.7
2019-06-07T13:49:17.428Z,23.8
2019-06-07T13:51:18.870Z,23.9
2019-06-07T13:53:18.938Z,23.8
2019-06-07T13:55:17.841Z,24
2019-06-07T13:57:17.903Z,24.2
2019-06-07T13:59:18.432Z,24.4
2019-06-07T13:59:34.416Z,24.4
2019-06-07T14:01:18.275Z,23.9
2019-06-07T14:03:20.646Z,23.8
2019-06-07T14:05:18.684Z,23.4
2019-06-07T14:07:18.857Z,23.3
2019-06-07T14:09:17.364Z,23.3
2019-06-07T14:11:17.412Z,23.1
2019-06-07T14:13:17.488Z,22.9
2019-06-07T14:14:34.412Z,22.8
2019-06-07T14:15:17.405Z,22.7
2019-06-07T14:17:17.336Z,22.6
2019-06-07T14:19:17.420Z,22.4
2019-06-07T14:21:17.399Z,22.4
2019-06-07T14:23:17.431Z,22.3
2019-06-07T14:25:17.405Z,22.3
2019-06-07T14:27:17.631Z,22.3
2019-06-07T14:29:17.357Z,22.3
2019-06-07T14:29:34.366Z,22.3
2019-06-07T14:31:17.422Z,22.4
2019-06-07T14:33:23.556Z,22.5
2019-06-07T14:35:18.278Z,22.5
2019-06-07T14:37:17.385Z,22.4
2019-06-07T14:39:17.375Z,22.3
2019-06-07T14:41:17.395Z,22.2
2019-06-07T14:43:17.341Z,22.2
2019-06-07T14:44:34.335Z,22.1
2019-06-07T14:45:17.353Z,21.9
2019-06-07T14:47:17.407Z,21.9
2019-06-07T14:49:17.367Z,21.8
2019-06-07T14:51:28.310Z,21.8
2019-06-07T14:53:17.585Z,20.9
2019-06-07T14:55:17.416Z,20.6
2019-06-07T14:57:17.411Z,20.1
2019-06-07T14:59:17.354Z,19.3
2019-06-07T14:59:34.859Z,19.3
2019-06-07T15:01:17.364Z,19.1
2019-06-07T15:03:17.398Z,18.7
2019-06-07T15:05:17.400Z,18.5
2019-06-07T15:07:17.483Z,18.4
2019-06-07T15:09:17.365Z,18.3
2019-06-07T15:11:17.408Z,17.9
2019-06-07T15:13:17.389Z,17.9
2019-06-07T15:14:35.454Z,17.9
2019-06-07T15:15:17.481Z,17.9
2019-06-07T15:17:17.411Z,18.1
2019-06-07T15:19:17.366Z,17.9
2019-06-07T15:21:17.398Z,17.6
2019-06-07T15:23:19.347Z,17.6
2019-06-07T15:25:17.407Z,17.6
2019-06-07T15:27:17.403Z,17.6
2019-06-07T15:29:17.413Z,17.5
2019-06-07T15:29:35.604Z,17.4
2019-06-07T15:31:17.376Z,17.4
2019-06-07T15:33:17.413Z,17.3
2019-06-07T15:35:17.431Z,17.1
2019-06-07T15:37:18.263Z,17.1
2019-06-07T15:39:23.312Z,17
2019-06-07T15:41:17.493Z,17.1
2019-06-07T15:43:17.459Z,16.9
2019-06-07T15:44:35.401Z,17.1
2019-06-07T15:45:17.458Z,17.1
2019-06-07T15:47:17.403Z,16.9
2019-06-07T15:49:17.315Z,16.9
2019-06-07T15:51:17.394Z,16.8
2019-06-07T15:53:18.465Z,16.8
2019-06-07T15:55:17.329Z,16.8
2019-06-07T15:57:17.417Z,16.8
2019-06-07T15:59:17.352Z,16.8
2019-06-07T15:59:35.803Z,16.8
2019-06-07T16:01:17.371Z,16.8
2019-06-07T16:03:17.350Z,16.8
2019-06-07T16:05:17.407Z,16.7
2019-06-07T16:07:18.290Z,16.8
2019-06-07T16:09:17.442Z,16.6
2019-06-07T16:11:17.504Z,16.4
2019-06-07T16:13:17.454Z,16.1
2019-06-07T16:14:35.013Z,16.1
2019-06-07T16:15:18.488Z,16.1
2019-06-07T16:17:17.419Z,16.1
2019-06-07T16:19:17.366Z,16.1
2019-06-07T16:21:17.409Z,16.1
2019-06-07T16:23:17.410Z,16.1
2019-06-07T16:25:17.395Z,16.1
2019-06-07T16:27:17.428Z,16.1
2019-06-07T16:29:17.385Z,16.1
2019-06-07T16:29:34.612Z,16.1
2019-06-07T16:31:17.412Z,15.8
2019-06-07T16:33:17.343Z,15.6
2019-06-07T16:35:17.414Z,15.6
2019-06-07T16:37:17.428Z,15.6
2019-06-07T16:39:17.396Z,15.5
2019-06-07T16:41:17.395Z,15.6
2019-06-07T16:43:18.347Z,15.5
2019-06-07T16:44:34.407Z,15.4
2019-06-07T16:45:17.415Z,15.4
2019-06-07T16:47:17.415Z,15.5
2019-06-07T16:49:17.367Z,15.6
2019-06-07T16:51:17.424Z,15.6
2019-06-07T16:53:17.412Z,15.6
2019-06-07T16:55:17.434Z,15.7
2019-06-07T16:57:17.482Z,15.6
2019-06-07T16:59:17.286Z,15.6
2019-06-07T16:59:35.175Z,15.6
2019-06-07T17:01:17.417Z,15.4
2019-06-07T17:03:17.420Z,15.4
2019-06-07T17:05:17.443Z,15.4
2019-06-07T17:07:17.517Z,15.2
2019-06-07T17:09:17.367Z,15.2
2019-06-07T17:11:17.406Z,15.4
2019-06-07T17:13:32.345Z,15.4
2019-06-07T17:14:35.252Z,15.5
2019-06-07T17:15:18.279Z,15.5
2019-06-07T17:17:17.407Z,15.6
2019-06-07T17:19:17.353Z,15.5
2019-06-07T17:21:17.403Z,15.5
2019-06-07T17:23:17.535Z,15.6
2019-06-07T17:25:17.658Z,15.6
2019-06-07T17:27:17.406Z,15.6
2019-06-07T17:29:17.385Z,15.6
2019-06-07T17:29:34.408Z,15.6
2019-06-07T17:31:17.419Z,15.5
2019-06-07T17:33:17.410Z,15.6
2019-06-07T17:35:17.340Z,15.5
2019-06-07T17:37:17.424Z,15.6
2019-06-07T17:39:17.383Z,15.6
2019-06-07T17:41:17.329Z,15.6
2019-06-07T17:43:17.385Z,15.6
2019-06-07T17:44:35.255Z,15.7
2019-06-07T17:45:17.350Z,15.6
2019-06-07T17:47:19.123Z,15.6
2019-06-07T17:49:17.354Z,15.6
2019-06-07T17:51:17.393Z,15.8
2019-06-07T17:53:17.341Z,16.1
2019-06-07T17:55:17.414Z,16.2
2019-06-07T17:57:17.436Z,16.1
2019-06-07T17:59:17.414Z,16
2019-06-07T17:59:34.406Z,15.9
2019-06-07T18:01:17.421Z,15.9
2019-06-07T18:03:17.351Z,15.9
2019-06-07T18:05:17.391Z,15.9
2019-06-07T18:07:17.405Z,15.8
2019-06-07T18:09:17.384Z,15.8
2019-06-07T18:11:17.500Z,15.8
2019-06-07T18:13:17.411Z,15.8
2019-06-07T18:14:35.283Z,15.8
2019-06-07T18:15:17.436Z,15.8
2019-06-07T18:17:17.379Z,15.8
2019-06-07T18:19:17.357Z,15.8
2019-06-07T18:21:17.408Z,15.8
2019-06-07T18:23:17.416Z,15.9
2019-06-07T18:25:17.428Z,15.8
2019-06-07T18:27:18.274Z,15.9
2019-06-07T18:29:17.370Z,15.8
2019-06-07T18:29:34.361Z,15.8
2019-06-07T18:31:17.440Z,15.8
2019-06-07T18:33:17.412Z,15.8
2019-06-07T18:35:17.362Z,15.8
2019-06-07T18:37:17.412Z,15.8
2019-06-07T18:39:17.367Z,15.7
2019-06-07T18:41:17.418Z,15.6
2019-06-07T18:43:17.356Z,15.6
2019-06-07T18:44:34.398Z,15.6
2019-06-07T18:45:17.391Z,15.6
2019-06-07T18:47:17.360Z,15.6
2019-06-07T18:49:17.458Z,15.6
2019-06-07T18:51:17.412Z,15.6
2019-06-07T18:53:17.407Z,15.7
2019-06-07T18:55:17.421Z,15.8
2019-06-07T18:57:17.393Z,15.9
2019-06-07T18:59:17.357Z,15.9
2019-06-07T18:59:34.435Z,15.9
2019-06-07T19:01:17.387Z,15.9
2019-06-07T19:03:17.413Z,15.8
2019-06-07T19:05:17.351Z,15.8
2019-06-07T19:07:17.374Z,15.7
2019-06-07T19:09:17.421Z,15.6
2019-06-07T19:11:17.398Z,15.5
2019-06-07T19:13:17.388Z,15.5
2019-06-07T19:14:37.260Z,15.4
2019-06-07T19:15:17.497Z,15.4
2019-06-07T19:17:17.397Z,15.4
2019-06-07T19:19:17.344Z,15.4
2019-06-07T19:21:17.381Z,15.3
2019-06-07T19:23:17.344Z,15.4
2019-06-07T19:25:17.404Z,15.4
2019-06-07T19:27:17.326Z,15.3
2019-06-07T19:29:17.375Z,15.3
2019-06-07T19:29:34.362Z,15.3
2019-06-07T19:31:17.411Z,15.3
2019-06-07T19:33:17.353Z,15.2
2019-06-07T19:35:17.392Z,15.2
2019-06-07T19:37:17.423Z,15.3
2019-06-07T19:39:17.363Z,15.2
2019-06-07T19:41:19.814Z,15.2
2019-06-07T19:43:17.374Z,15.3
2019-06-07T19:44:35.294Z,15.2
2019-06-07T19:45:29.406Z,15.2
2019-06-07T19:47:17.379Z,15.2
2019-06-07T19:49:17.361Z,15.2
2019-06-07T19:51:20.279Z,15.2
2019-06-07T19:53:17.416Z,15.2
2019-06-07T19:55:18.281Z,15.2
2019-06-07T19:57:17.349Z,15.1
2019-06-07T19:59:17.367Z,15.1
2019-06-07T19:59:34.392Z,15.1
2019-06-07T20:01:17.437Z,15.1
2019-06-07T20:03:17.410Z,15
2019-06-07T20:05:17.401Z,15
2019-06-07T20:07:17.396Z,15
2019-06-07T20:09:17.367Z,15
2019-06-07T20:11:17.396Z,15
2019-06-07T20:13:19.060Z,14.9
2019-06-07T20:14:34.313Z,14.9
2019-06-07T20:15:27.627Z,14.9
2019-06-07T20:17:17.394Z,14.9
2019-06-07T20:19:17.442Z,14.9
2019-06-07T20:21:17.418Z,14.8
2019-06-07T20:23:17.354Z,14.8
2019-06-07T20:25:17.381Z,14.8
2019-06-07T20:27:17.399Z,14.8
2019-06-07T20:29:25.703Z,14.8
2019-06-07T20:29:34.356Z,14.8
2019-06-07T20:31:17.386Z,14.8
2019-06-07T20:33:17.351Z,14.8
2019-06-07T20:35:17.362Z,14.8
2019-06-07T20:37:17.428Z,14.7
2019-06-07T20:39:17.365Z,14.7
2019-06-07T20:41:17.385Z,14.6
2019-06-07T20:43:17.351Z,14.6
2019-06-07T20:44:34.384Z,14.7
2019-06-07T20:45:30.018Z,14.7
2019-06-07T20:47:17.427Z,14.7
2019-06-07T20:49:17.364Z,14.7
2019-06-07T20:51:17.464Z,14.7
2019-06-07T20:53:17.333Z,14.8
2019-06-07T20:55:17.432Z,14.8
2019-06-07T20:57:17.365Z,14.8
2019-06-07T20:59:18.281Z,14.8
2019-06-07T20:59:34.364Z,14.8
2019-06-07T21:01:17.399Z,14.8
2019-06-07T21:03:17.403Z,14.8
2019-06-07T21:05:17.391Z,14.8
2019-06-07T21:07:17.389Z,14.8
2019-06-07T21:09:17.370Z,14.8
2019-06-07T21:11:17.403Z,14.8
2019-06-07T21:13:17.331Z,14.8
2019-06-07T21:14:34.300Z,14.8
2019-06-07T21:15:18.154Z,14.8
2019-06-07T21:17:17.324Z,14.8
2019-06-07T21:19:17.365Z,14.8
2019-06-07T21:21:17.311Z,14.8
2019-06-07T21:23:17.359Z,14.9
2019-06-07T21:25:17.393Z,14.8
2019-06-07T21:27:17.417Z,14.9
2019-06-07T21:29:17.397Z,14.9
2019-06-07T21:29:34.354Z,14.9
2019-06-07T21:31:17.403Z,14.9
2019-06-07T21:33:17.383Z,14.9
2019-06-07T21:35:17.404Z,14.9
2019-06-07T21:37:17.405Z,14.9
2019-06-07T21:39:17.375Z,15
2019-06-07T21:41:17.384Z,15
2019-06-07T21:43:17.394Z,15.1
2019-06-07T21:44:34.386Z,15.1
2019-06-07T21:45:17.341Z,15.1
2019-06-07T21:47:17.457Z,15.1
2019-06-07T21:49:17.383Z,15.1
2019-06-07T21:51:17.428Z,15.1
2019-06-07T21:53:17.310Z,15.1
2019-06-07T21:55:17.376Z,15.1
2019-06-07T21:57:17.393Z,15
2019-06-07T21:59:17.347Z,14.9
2019-06-07T21:59:34.359Z,14.9
2019-06-07T22:01:17.389Z,14.9
2019-06-07T22:03:17.381Z,14.8
2019-06-07T22:05:17.354Z,14.8
2019-06-07T22:07:17.403Z,14.6
2019-06-07T22:09:17.401Z,14.6
2019-06-07T22:11:18.273Z,14.5
2019-06-07T22:13:17.398Z,14.5
2019-06-07T22:14:34.313Z,14.4
2019-06-07T22:15:29.010Z,14.4
2019-06-07T22:17:17.390Z,14.4
2019-06-07T22:19:17.363Z,14.3
2019-06-07T22:21:17.309Z,14.3
2019-06-07T22:23:17.400Z,14.3
2019-06-07T22:25:17.287Z,14.4
2019-06-07T22:27:18.220Z,14.4
2019-06-07T22:29:19.244Z,14.4
2019-06-07T22:29:34.364Z,14.4
2019-06-07T22:31:17.377Z,14.4
2019-06-07T22:33:17.352Z,14.3
2019-06-07T22:35:17.482Z,14.3
2019-06-07T22:37:20.300Z,14.3
2019-06-07T22:39:17.900Z,14.3
2019-06-07T22:41:17.654Z,14.2
2019-06-07T22:43:18.809Z,14.2
2019-06-07T22:44:34.397Z,14.2
2019-06-07T22:45:18.876Z,14.2
2019-06-07T22:47:18.238Z,14.2
2019-06-07T22:49:17.355Z,14.2
2019-06-07T22:51:18.384Z,14.2
2019-06-07T22:53:17.669Z,14.1
2019-06-07T22:55:18.176Z,14.1
2019-06-07T22:57:18.333Z,14.1
2019-06-07T22:59:18.748Z,14.1
2019-06-07T22:59:34.370Z,14.1
2019-06-07T23:01:17.529Z,14
2019-06-07T23:03:19.050Z,14.1
2019-06-07T23:05:17.412Z,14.1
2019-06-07T23:07:17.396Z,14.1
2019-06-07T23:09:17.471Z,14
2019-06-07T23:11:17.449Z,14
2019-06-07T23:13:17.792Z,14
2019-06-07T23:14:34.400Z,14
2019-06-07T23:15:17.837Z,14.1
2019-06-07T23:17:25.478Z,14.1
2019-06-07T23:19:18.259Z,14
2019-06-07T23:23:17.464Z,14
2019-06-07T23:25:20.601Z,14.1
2019-06-07T23:27:18.426Z,14
2019-06-07T23:29:18.331Z,14
2019-06-07T23:29:34.432Z,14
2019-06-07T23:31:18.502Z,14
2019-06-07T23:33:17.351Z,13.9
2019-06-07T23:35:17.483Z,13.9
2019-06-07T23:37:17.410Z,14
2019-06-07T23:39:20.406Z,14
2019-06-07T23:41:17.689Z,14
2019-06-07T23:43:17.572Z,13.9